Time;durP1;ratioP1;P1;durP2;ratioP2;P2;SDS_P1;SDS_P2;PMS_P1;PMS_P2;Temp;Humidity;BMP_temperature;BMP_pressure;BME280_temperature;BME280_humidity;BME280_pressure;Samples;Min_cycle;Max_cycle;Signal;HPM_P1;HPM_P2
2023/11/06 00:01:27;;;;;;;8.55;1.90;;;11.40;99.90;;;;;;5027548;28;20048;-67
2023/11/06 00:03:52;;;;;;;4.28;1.38;;;11.40;99.90;;;;;;5029405;28;20057;-67
2023/11/06 00:06:22;;;;;;;5.35;1.52;;;11.40;99.90;;;;;;5028800;28;20469;-67
2023/11/06 00:08:48;;;;;;;3.47;1.50;;;11.40;99.90;;;;;;5029372;28;20029;-67
2023/11/06 00:11:14;;;;;;;6.47;1.88;;;11.50;99.90;;;;;;5027428;28;20361;-67
2023/11/06 00:13:42;;;;;;;4.97;1.73;;;11.40;99.90;;;;;;5027588;28;20128;-67
2023/11/06 00:16:11;;;;;;;7.30;1.85;;;11.50;99.90;;;;;;5024988;28;20025;-67
2023/11/06 00:18:39;;;;;;;5.88;1.83;;;11.50;99.90;;;;;;5029150;28;20048;-67
2023/11/06 00:21:10;;;;;;;7.45;2.35;;;11.50;99.90;;;;;;5028336;28;20071;-67
2023/11/06 00:23:35;;;;;;;4.75;1.75;;;11.60;99.90;;;;;;5026887;28;20041;-67
2023/11/06 00:26:03;;;;;;;7.28;1.92;;;11.50;99.90;;;;;;5029474;28;20175;-67
2023/11/06 00:28:28;;;;;;;6.93;1.80;;;11.50;99.90;;;;;;5028433;28;20052;-67
2023/11/06 00:30:54;;;;;;;8.40;2.15;;;11.50;99.90;;;;;;5028449;28;20064;-67
2023/11/06 00:33:20;;;;;;;8.20;2.22;;;11.60;99.90;;;;;;5027481;28;20578;-67
2023/11/06 00:35:45;;;;;;;8.32;2.00;;;11.60;99.90;;;;;;5027845;28;20049;-67
2023/11/06 00:38:12;;;;;;;6.50;1.65;;;11.60;99.90;;;;;;5025369;28;20029;-67
2023/11/06 00:40:38;;;;;;;3.58;1.83;;;11.60;99.90;;;;;;5027578;28;20530;-67
2023/11/06 00:43:03;;;;;;;10.73;2.20;;;11.60;99.90;;;;;;5027569;28;20038;-67
2023/11/06 00:45:31;;;;;;;6.15;2.15;;;11.60;99.90;;;;;;5025948;28;20483;-67
2023/11/06 00:47:59;;;;;;;;;;;11.60;99.90;;;;;;5031130;28;20541;-67
2023/11/06 00:50:25;;;;;;;8.23;1.85;;;11.60;99.90;;;;;;5026285;28;19909;-67
2023/11/06 00:52:56;;;;;;;9.57;1.95;;;11.50;99.90;;;;;;5028244;28;20045;-67
2023/11/06 00:55:22;;;;;;;3.40;1.75;;;11.50;99.90;;;;;;5028400;28;20395;-67
2023/11/06 00:57:49;;;;;;;6.68;1.60;;;11.50;99.90;;;;;;5028488;28;20028;-67
2023/11/06 01:00:17;;;;;;;6.20;1.50;;;11.50;99.90;;;;;;5025395;28;20048;-67
2023/11/06 01:02:43;;;;;;;6.15;1.65;;;11.40;99.90;;;;;;5025230;28;20026;-67
2023/11/06 01:05:09;;;;;;;7.68;1.40;;;11.40;99.90;;;;;;5030074;28;20030;-67
2023/11/06 01:07:36;;;;;;;3.28;1.50;;;11.40;99.90;;;;;;5029861;28;20040;-67
2023/11/06 01:10:02;;;;;;;5.22;1.40;;;11.40;99.90;;;;;;5025631;28;20068;-67
2023/11/06 01:12:30;;;;;;;6.97;1.73;;;11.30;99.90;;;;;;5027888;28;20373;-67
2023/11/06 01:14:58;;;;;;;10.18;1.85;;;11.40;99.90;;;;;;5027348;28;20030;-67
2023/11/06 01:17:28;;;;;;;4.72;1.77;;;11.40;99.90;;;;;;5028621;28;20045;-67
2023/11/06 01:19:56;;;;;;;8.15;2.15;;;11.40;99.90;;;;;;5029565;28;20033;-67
2023/11/06 01:22:21;;;;;;;6.25;1.52;;;11.30;99.90;;;;;;5028651;28;20033;-67
2023/11/06 01:24:47;;;;;;;2.70;1.20;;;11.30;99.90;;;;;;5027615;28;20038;-67
2023/11/06 01:27:15;;;;;;;9.60;1.50;;;11.40;99.90;;;;;;5028885;28;20030;-67
2023/11/06 01:29:41;;;;;;;5.25;1.75;;;11.30;99.90;;;;;;5027346;28;20060;-67
2023/11/06 01:32:07;;;;;;;5.68;1.50;;;11.30;99.90;;;;;;5028212;28;20060;-67
2023/11/06 01:34:32;;;;;;;8.52;1.70;;;11.40;99.90;;;;;;5028854;28;20030;-67
2023/11/06 01:37:00;;;;;;;4.57;1.50;;;11.30;99.90;;;;;;5027187;28;20037;-67
2023/11/06 01:39:28;;;;;;;6.28;1.60;;;11.40;99.90;;;;;;5026439;28;20030;-67
2023/11/06 01:41:55;;;;;;;5.07;1.77;;;11.30;99.90;;;;;;5025842;28;20044;-67
2023/11/06 01:44:21;;;;;;;8.73;1.50;;;11.40;99.90;;;;;;5027253;28;20029;-67
2023/11/06 01:46:49;;;;;;;9.55;1.90;;;11.30;99.90;;;;;;5028198;28;20041;-67
2023/11/06 01:49:17;;;;;;;6.15;1.70;;;11.30;99.90;;;;;;5032597;28;20033;-67
2023/11/06 01:51:43;;;;;;;5.72;1.50;;;11.30;99.90;;;;;;5032044;28;20030;-67
2023/11/06 01:54:12;;;;;;;7.03;2.42;;;11.30;99.90;;;;;;5030860;28;20396;-67
2023/11/06 01:56:43;;;;;;;7.03;2.22;;;11.30;99.90;;;;;;5031577;28;20061;-67
2023/11/06 01:59:11;;;;;;;7.15;2.00;;;11.30;99.90;;;;;;5031316;28;20025;-67
2023/11/06 02:01:38;;;;;;;;;;;11.40;99.90;;;;;;5032310;28;20088;-67
2023/11/06 02:04:07;;;;;;;8.20;1.83;;;11.40;99.90;;;;;;5031117;28;19992;-67
2023/11/06 02:06:36;;;;;;;5.55;1.45;;;11.50;99.90;;;;;;5032247;28;20036;-67
2023/11/06 02:09:03;;;;;;;7.65;1.92;;;11.40;99.90;;;;;;5030322;28;20404;-67
2023/11/06 02:11:32;;;;;;;8.65;2.17;;;11.40;99.90;;;;;;5031546;28;20017;-67
2023/11/06 02:14:00;;;;;;;8.02;2.00;;;11.50;99.90;;;;;;5031232;28;20096;-67
2023/11/06 02:16:29;;;;;;;5.10;1.80;;;11.40;99.90;;;;;;5030284;28;20030;-67
2023/11/06 02:18:55;;;;;;;2.88;1.50;;;11.40;99.90;;;;;;5032010;28;20037;-67
2023/11/06 02:21:23;;;;;;;12.45;2.47;;;11.50;99.90;;;;;;5033165;28;20026;-67
2023/11/06 02:23:49;;;;;;;8.95;2.10;;;11.50;99.90;;;;;;5031353;28;20391;-67
2023/11/06 02:26:17;;;;;;;5.72;1.48;;;11.50;99.90;;;;;;5029798;28;20177;-67
2023/11/06 02:28:52;;;;;;;10.52;2.00;;;11.50;99.90;;;;;;5030311;28;20079;-67
2023/11/06 02:31:20;;;;;;;4.13;2.00;;;11.60;99.90;;;;;;5027169;28;20036;-67
2023/11/06 02:33:46;;;;;;;;;;;11.60;99.90;;;;;;5028540;28;20033;-67
2023/11/06 02:36:14;;;;;;;6.78;2.15;;;11.60;99.90;;;;;;5031465;28;19913;-67
2023/11/06 02:38:46;;;;;;;6.35;1.88;;;11.60;99.90;;;;;;5029498;28;20133;-67
2023/11/06 02:41:12;;;;;;;8.38;2.25;;;11.60;99.90;;;;;;5031219;28;20036;-67
2023/11/06 02:43:40;;;;;;;7.38;2.10;;;11.50;99.90;;;;;;5031128;28;20021;-66
2023/11/06 02:46:08;;;;;;;;;;;11.50;99.90;;;;;;5028098;28;20034;-66
2023/11/06 02:48:36;;;;;;;8.50;2.45;;;11.60;99.90;;;;;;5029321;28;19912;-66
2023/11/06 02:51:02;;;;;;;;;;;11.60;99.90;;;;;;5029515;28;20024;-66
2023/11/06 02:53:28;;;;;;;7.97;2.40;;;11.50;99.90;;;;;;5029074;28;19918;-66
2023/11/06 02:55:53;;;;;;;6.15;2.25;;;11.50;99.90;;;;;;5030825;28;20028;-66
2023/11/06 02:58:20;;;;;;;14.45;2.47;;;11.60;99.90;;;;;;5029883;28;20033;-66
2023/11/06 03:00:46;;;;;;;9.25;2.33;;;11.70;99.90;;;;;;5026535;28;20108;-66
2023/11/06 03:03:12;;;;;;;9.15;1.75;;;11.60;99.90;;;;;;5028952;28;20555;-66
2023/11/06 03:05:37;;;;;;;9.40;2.15;;;11.50;99.90;;;;;;5029355;28;20129;-66
2023/11/06 03:08:07;;;;;;;10.05;2.38;;;11.60;99.90;;;;;;5030683;28;20025;-66
2023/11/06 03:10:35;;;;;;;3.85;1.90;;;11.60;99.90;;;;;;5028937;28;20034;-66
2023/11/06 03:15:36;;;;;;;5.32;1.65;;;11.50;99.90;;;;;;4954760;22;20030;-68
2023/11/06 03:18:01;;;;;;;7.50;2.50;;;11.60;99.90;;;;;;5089327;23;20056;-68
2023/11/06 03:20:27;;;;;;;6.15;2.05;;;11.50;99.90;;;;;;5059550;28;20393;-68
2023/11/06 03:30:44;;;;;;;11.57;1.67;;;11.60;99.90;;;;;;4927225;22;20066;-68
2023/11/06 03:33:09;;;;;;;6.25;2.00;;;11.60;99.90;;;;;;5031703;28;20036;-69
2023/11/06 03:35:38;;;;;;;5.72;1.90;;;11.60;99.90;;;;;;5028378;28;20402;-69
2023/11/06 03:38:03;;;;;;;;;;;11.60;99.90;;;;;;5027575;28;20370;-69
2023/11/06 03:40:31;;;;;;;4.78;1.67;;;11.60;99.90;;;;;;5029912;28;19917;-69
2023/11/06 03:42:57;;;;;;;;;;;11.60;99.90;;;;;;5031795;28;20843;-68
2023/11/06 03:45:22;;;;;;;4.13;1.73;;;11.60;99.90;;;;;;5026638;28;19962;-69
2023/11/06 03:47:48;;;;;;;18.13;2.72;;;11.60;99.90;;;;;;5028716;28;20112;-68
2023/11/06 03:50:14;;;;;;;7.60;1.80;;;11.50;99.90;;;;;;5026759;28;20108;-69
2023/11/06 03:52:40;;;;;;;3.35;1.73;;;11.60;99.90;;;;;;5026601;28;20132;-69
2023/11/06 03:55:06;;;;;;;6.93;2.33;;;11.60;99.90;;;;;;5028486;28;20125;-69
2023/11/06 03:57:34;;;;;;;8.57;2.25;;;11.60;99.90;;;;;;5029446;28;20513;-69
2023/11/06 04:00:02;;;;;;;7.63;2.80;;;11.50;99.90;;;;;;5029257;28;20021;-69
2023/11/06 04:02:33;;;;;;;11.70;2.25;;;11.50;99.90;;;;;;5025579;28;20032;-69
2023/11/06 04:04:59;;;;;;;12.02;2.50;;;11.50;99.90;;;;;;5027609;28;20176;-69
2023/11/06 04:07:27;;;;;;;5.80;1.70;;;11.50;99.90;;;;;;5026861;28;20481;-69
2023/11/06 04:09:56;;;;;;;3.97;1.70;;;11.50;99.90;;;;;;5028339;28;20562;-69
2023/11/06 04:12:22;;;;;;;8.43;2.13;;;11.50;99.90;;;;;;5024924;28;20065;-68
2023/11/06 04:14:49;;;;;;;4.75;1.80;;;11.50;99.90;;;;;;5026639;28;20025;-69
2023/11/06 04:17:14;;;;;;;8.73;1.92;;;11.50;99.90;;;;;;5028875;28;20486;-69
2023/11/06 04:19:41;;;;;;;5.68;1.80;;;11.60;99.90;;;;;;5025612;28;20060;-69
2023/11/06 04:22:07;;;;;;;7.72;2.08;;;11.60;99.90;;;;;;5028350;28;20091;-69
2023/11/06 04:24:33;;;;;;;6.88;1.98;;;11.60;99.90;;;;;;5027537;28;20492;-67
2023/11/06 04:26:59;;;;;;;6.32;2.05;;;11.70;99.90;;;;;;5029407;28;20097;-66
2023/11/06 04:29:24;;;;;;;6.57;1.90;;;11.70;99.90;;;;;;5026772;28;20029;-66
2023/11/06 04:31:50;;;;;;;7.50;2.38;;;11.70;99.90;;;;;;5008510;28;20032;-67
2023/11/06 04:34:16;;;;;;;9.25;2.42;;;11.70;99.90;;;;;;5029228;28;20021;-67
2023/11/06 04:36:41;;;;;;;7.75;2.10;;;11.70;99.90;;;;;;5024604;28;20421;-67
2023/11/06 04:39:09;;;;;;;10.20;2.47;;;11.70;99.90;;;;;;5027954;28;20077;-66
2023/11/06 04:41:39;;;;;;;4.30;1.90;;;11.70;99.90;;;;;;5030536;28;20605;-67
2023/11/06 04:44:05;;;;;;;6.80;2.42;;;11.70;99.90;;;;;;5027754;28;20510;-67
2023/11/06 04:46:31;;;;;;;6.45;1.73;;;11.70;99.90;;;;;;5027822;28;20029;-67
2023/11/06 04:48:56;;;;;;;6.07;2.40;;;11.70;99.90;;;;;;5028362;28;20052;-67
2023/11/06 04:51:24;;;;;;;3.33;1.58;;;11.70;99.90;;;;;;5027899;28;20621;-67
2023/11/06 04:53:52;;;;;;;5.85;1.70;;;11.70;99.90;;;;;;5026313;28;20383;-66
2023/11/06 04:56:18;;;;;;;4.68;1.75;;;11.70;99.90;;;;;;5027620;28;20083;-67
2023/11/06 04:58:43;;;;;;;6.88;1.95;;;11.70;99.90;;;;;;5028149;28;20025;-67
2023/11/06 05:01:11;;;;;;;4.43;1.50;;;11.70;99.90;;;;;;5027550;28;20431;-67
2023/11/06 05:03:39;;;;;;;;;;;11.70;99.90;;;;;;5028614;28;20033;-66
2023/11/06 05:06:05;;;;;;;6.53;1.75;;;11.70;99.90;;;;;;5027869;28;20353;-67
2023/11/06 05:08:33;;;;;;;5.53;1.55;;;11.60;99.90;;;;;;5010534;28;20042;-67
2023/11/06 05:11:00;;;;;;;4.38;1.50;;;11.60;99.90;;;;;;5012756;28;20026;-66
2023/11/06 05:13:26;;;;;;;10.65;1.40;;;11.60;99.90;;;;;;5027270;28;20514;-67
2023/11/06 05:15:52;;;;;;;7.25;1.60;;;11.60;99.90;;;;;;5027598;28;20029;-67
2023/11/06 05:18:18;;;;;;;8.77;1.70;;;11.60;99.90;;;;;;5028173;28;20100;-66
2023/11/06 05:20:44;;;;;;;6.13;1.83;;;11.70;99.90;;;;;;5027017;28;20522;-66
2023/11/06 05:23:10;;;;;;;4.82;1.60;;;11.70;99.90;;;;;;5013133;28;20030;-67
2023/11/06 05:25:36;;;;;;;7.45;1.80;;;11.70;99.90;;;;;;5012082;28;20048;-67
2023/11/06 05:28:03;;;;;;;5.13;1.48;;;11.70;99.90;;;;;;5011993;28;20037;-67
2023/11/06 05:30:29;;;;;;;6.80;1.70;;;11.70;99.90;;;;;;5012339;28;20487;-67
2023/11/06 05:32:59;;;;;;;4.90;1.67;;;11.70;99.90;;;;;;5000936;28;20484;-66
2023/11/06 05:35:25;;;;;;;7.63;1.58;;;11.70;99.90;;;;;;4997629;28;20018;-67
2023/11/06 05:37:52;;;;;;;9.45;2.17;;;11.70;99.90;;;;;;4996053;28;20034;-66
2023/11/06 05:40:20;;;;;;;7.78;1.90;;;11.70;99.90;;;;;;4995180;28;20022;-66
2023/11/06 05:42:46;;;;;;;7.68;1.92;;;11.60;99.90;;;;;;4993531;28;20088;-66
2023/11/06 05:45:12;;;;;;;11.80;2.10;;;11.60;99.90;;;;;;4999590;28;20375;-67
2023/11/06 05:47:37;;;;;;;6.22;1.88;;;11.60;99.90;;;;;;4992267;28;20141;-67
2023/11/06 05:50:06;;;;;;;7.18;1.60;;;11.60;99.90;;;;;;4994220;28;20034;-66
2023/11/06 05:52:33;;;;;;;7.45;2.40;;;11.60;99.90;;;;;;4991535;28;20043;-67
2023/11/06 05:54:58;;;;;;;10.23;1.83;;;11.60;99.90;;;;;;4992372;28;20021;-67
2023/11/06 05:57:24;;;;;;;6.60;1.60;;;11.60;99.90;;;;;;4998487;28;20030;-67
2023/11/06 05:59:52;;;;;;;10.15;1.60;;;11.60;99.90;;;;;;4994869;28;20108;-66
2023/11/06 06:02:20;;;;;;;;;;;11.60;99.90;;;;;;4992618;28;20084;-67
2023/11/06 06:04:46;;;;;;;3.75;1.60;;;11.50;99.90;;;;;;4993962;28;19926;-67
2023/11/06 06:07:13;;;;;;;4.65;1.33;;;11.50;99.90;;;;;;4993075;28;20392;-67
2023/11/06 06:09:42;;;;;;;6.32;1.60;;;11.60;99.90;;;;;;4992346;28;20528;-67
2023/11/06 06:12:08;;;;;;;5.15;1.33;;;11.60;99.90;;;;;;4995130;28;20696;-67
2023/11/06 06:14:34;;;;;;;5.30;1.40;;;11.60;99.90;;;;;;4994301;28;20480;-67
2023/11/06 06:17:02;;;;;;;3.28;1.17;;;11.60;99.90;;;;;;4992126;28;20053;-67
2023/11/06 06:19:31;;;;;;;7.13;1.63;;;11.50;99.90;;;;;;4995372;28;20026;-67
2023/11/06 06:21:59;;;;;;;5.65;1.70;;;11.50;99.90;;;;;;4997031;28;20034;-67
2023/11/06 06:24:25;;;;;;;;;;;11.50;99.90;;;;;;4999253;28;20041;-67
2023/11/06 06:26:55;;;;;;;8.38;1.60;;;11.50;99.90;;;;;;4990229;28;20005;-66
2023/11/06 06:29:21;;;;;;;5.18;1.50;;;11.50;99.90;;;;;;4987697;28;20034;-67
2023/11/06 06:31:48;;;;;;;6.15;1.83;;;11.50;99.90;;;;;;4976456;28;20026;-67
2023/11/06 06:34:14;;;;;;;6.75;1.75;;;11.50;99.90;;;;;;4970589;28;20065;-68
2023/11/06 06:36:39;;;;;;;6.70;1.40;;;11.60;99.90;;;;;;4970065;28;20077;-68
2023/11/06 06:39:07;;;;;;;12.18;2.00;;;11.50;99.90;;;;;;4983158;28;20682;-68
2023/11/06 06:41:33;;;;;;;6.10;1.40;;;11.60;99.90;;;;;;4968144;28;20026;-68
2023/11/06 06:43:58;;;;;;;5.30;1.63;;;11.60;99.90;;;;;;4971709;28;20066;-68
2023/11/06 06:46:24;;;;;;;4.20;1.60;;;11.60;99.90;;;;;;4967476;28;20031;-68
2023/11/06 06:48:50;;;;;;;6.15;1.67;;;11.60;99.90;;;;;;4970876;28;20034;-68
2023/11/06 06:51:15;;;;;;;5.30;1.92;;;11.60;99.90;;;;;;4968911;28;20034;-67
2023/11/06 06:53:43;;;;;;;7.85;1.83;;;11.60;99.90;;;;;;4969713;28;20029;-66
2023/11/06 06:56:11;;;;;;;9.27;2.40;;;11.60;99.90;;;;;;4966710;28;20086;-66
2023/11/06 06:58:37;;;;;;;;;;;11.70;99.90;;;;;;4968400;28;20685;-67
2023/11/06 07:01:08;;;;;;;11.55;2.50;;;11.70;99.90;;;;;;4966183;28;20014;-67
2023/11/06 07:03:37;;;;;;;8.77;2.15;;;11.70;99.90;;;;;;4967328;28;20519;-67
2023/11/06 07:06:10;;;;;;;8.65;2.00;;;11.70;99.90;;;;;;4970824;28;20382;-67
2023/11/06 07:08:38;;;;;;;4.25;1.80;;;11.70;99.90;;;;;;4969839;28;20501;-67
2023/11/06 07:11:04;;;;;;;;;;;11.70;99.90;;;;;;4978163;28;20058;-68
2023/11/06 07:13:31;;;;;;;6.88;1.65;;;11.70;99.90;;;;;;4972378;28;19914;-68
2023/11/06 07:15:57;;;;;;;8.07;1.90;;;11.70;99.90;;;;;;4997394;23;20085;-67
2023/11/06 07:18:25;;;;;;;7.07;2.25;;;11.70;99.90;;;;;;4990181;28;20030;-68
2023/11/06 07:20:53;;;;;;;8.82;2.15;;;11.70;99.90;;;;;;4993839;28;20129;-68
2023/11/06 07:23:19;;;;;;;8.00;1.77;;;11.70;99.90;;;;;;4995422;28;20064;-68
2023/11/06 07:25:47;;;;;;;4.07;1.70;;;11.70;99.90;;;;;;4987177;28;20050;-68
2023/11/06 07:28:13;;;;;;;;;;;11.70;99.90;;;;;;4987038;28;20026;-68
2023/11/06 07:30:39;;;;;;;3.17;1.55;;;11.80;99.90;;;;;;4989356;28;19913;-68
2023/11/06 07:33:05;;;;;;;10.13;2.20;;;11.80;99.90;;;;;;4987586;28;20038;-68
2023/11/06 07:35:31;;;;;;;4.15;1.77;;;11.80;99.90;;;;;;4990215;28;20024;-69
2023/11/06 07:37:58;;;;;;;4.38;1.73;;;11.80;99.90;;;;;;4993537;28;20019;-69
2023/11/06 07:40:24;;;;;;;3.33;1.58;;;11.80;99.90;;;;;;4992573;28;20034;-68
2023/11/06 07:42:49;;;;;;;6.40;1.65;;;11.80;99.90;;;;;;4990642;28;20040;-69
2023/11/06 07:45:18;;;;;;;8.85;2.05;;;11.80;99.90;;;;;;4994356;28;20121;-69
2023/11/06 07:47:44;;;;;;;7.32;1.95;;;11.80;99.90;;;;;;4988033;28;20460;-69
2023/11/06 07:50:13;;;;;;;12.57;1.92;;;11.80;99.90;;;;;;4996624;28;20097;-68
2023/11/06 07:52:38;;;;;;;9.50;1.50;;;11.80;99.90;;;;;;4990720;28;20035;-68
2023/11/06 07:55:08;;;;;;;8.77;1.48;;;11.80;99.90;;;;;;4989403;28;20053;-68
2023/11/06 07:57:36;;;;;;;3.08;1.50;;;11.80;99.90;;;;;;4991531;28;20562;-68
2023/11/06 08:00:02;;;;;;;;;;;11.90;99.90;;;;;;4993670;28;20104;-68
2023/11/06 08:02:28;;;;;;;5.90;1.58;;;11.90;99.90;;;;;;4991619;28;20359;-68
2023/11/06 08:04:53;;;;;;;6.18;1.60;;;11.90;99.90;;;;;;4989811;28;20054;-68
2023/11/06 08:07:20;;;;;;;5.35;1.65;;;11.90;99.90;;;;;;4988774;28;20503;-69
2023/11/06 08:09:46;;;;;;;4.40;1.40;;;11.90;99.90;;;;;;4990412;28;20118;-68
2023/11/06 08:12:14;;;;;;;8.27;1.80;;;12.00;99.90;;;;;;4988674;28;20102;-68
2023/11/06 08:14:39;;;;;;;;;;;12.00;99.90;;;;;;4990997;28;20022;-68
2023/11/06 08:17:08;;;;;;;4.78;1.60;;;12.00;99.90;;;;;;4986975;28;20287;-68
2023/11/06 08:19:39;;;;;;;6.43;1.83;;;12.00;99.90;;;;;;4988358;28;20529;-68
2023/11/06 08:22:05;;;;;;;7.25;1.63;;;12.00;99.90;;;;;;4995244;28;20031;-68
2023/11/06 08:24:30;;;;;;;6.85;1.75;;;12.10;99.90;;;;;;4988250;28;20030;-68
2023/11/06 08:26:56;;;;;;;5.10;1.52;;;12.10;99.90;;;;;;4992520;28;20089;-68
2023/11/06 08:29:22;;;;;;;5.93;1.65;;;12.10;99.90;;;;;;4991691;28;20115;-68
2023/11/06 08:31:52;;;;;;;9.15;1.80;;;12.10;99.90;;;;;;4989157;28;20122;-69
2023/11/06 08:34:21;;;;;;;6.60;1.58;;;12.10;99.90;;;;;;4992687;28;20029;-68
2023/11/06 08:36:47;;;;;;;5.13;1.95;;;12.00;99.90;;;;;;4992267;28;20029;-67
2023/11/06 08:39:12;;;;;;;6.15;1.92;;;12.10;99.90;;;;;;4990637;28;20202;-67
2023/11/06 08:41:38;;;;;;;5.60;1.85;;;12.00;99.90;;;;;;4990239;28;20022;-67
2023/11/06 08:44:06;;;;;;;10.77;1.55;;;12.10;99.90;;;;;;4990460;28;20034;-67
2023/11/06 08:46:32;;;;;;;8.13;1.52;;;12.10;99.90;;;;;;4991986;28;20092;-69
2023/11/06 08:48:58;;;;;;;4.97;1.33;;;12.10;99.90;;;;;;4990707;28;20404;-68
2023/11/06 08:51:23;;;;;;;6.93;1.65;;;12.10;99.90;;;;;;4989723;28;20038;-68
2023/11/06 08:53:49;;;;;;;7.85;2.35;;;12.10;99.90;;;;;;4989553;28;20109;-68
2023/11/06 08:56:21;;;;;;;6.22;1.35;;;12.20;99.90;;;;;;4987565;28;20477;-68
2023/11/06 08:58:46;;;;;;;7.50;1.92;;;12.20;99.90;;;;;;4991046;28;20093;-68
2023/11/06 09:01:12;;;;;;;4.53;1.52;;;12.20;99.90;;;;;;4991349;28;20499;-68
2023/11/06 09:03:39;;;;;;;3.78;1.20;;;12.20;99.90;;;;;;4990753;28;20030;-67
2023/11/06 09:06:10;;;;;;;9.25;1.70;;;12.20;99.90;;;;;;4988726;28;20033;-68
2023/11/06 09:08:36;;;;;;;4.25;1.10;;;12.30;99.90;;;;;;4989787;28;20146;-68
2023/11/06 09:11:02;;;;;;;6.80;1.33;;;12.30;99.90;;;;;;4991942;28;20098;-68
2023/11/06 09:13:35;;;;;;;10.68;1.48;;;12.30;99.90;;;;;;4984634;28;20030;-68
2023/11/06 09:16:06;;;;;;;4.10;1.45;;;12.30;99.90;;;;;;4991166;28;20101;-68
2023/11/06 09:18:32;;;;;;;7.68;1.20;;;12.40;99.90;;;;;;4987746;28;20033;-69
2023/11/06 09:20:58;;;;;;;12.52;1.70;;;12.30;99.90;;;;;;4989598;28;20022;-69
2023/11/06 09:23:23;;;;;;;9.52;1.90;;;12.30;99.90;;;;;;4988428;28;20034;-69
2023/11/06 09:25:49;;;;;;;9.57;1.50;;;12.30;99.90;;;;;;4993036;28;20077;-69
2023/11/06 09:28:15;;;;;;;7.05;1.20;;;12.20;99.90;;;;;;4989075;28;20044;-69
2023/11/06 09:30:44;;;;;;;5.68;1.25;;;12.20;99.90;;;;;;4989335;28;20073;-69
2023/11/06 09:33:11;;;;;;;7.65;1.40;;;12.20;99.90;;;;;;5004564;28;20361;-68
2023/11/06 09:35:41;;;;;;;4.63;1.27;;;12.20;99.90;;;;;;4993964;28;20444;-69
2023/11/06 09:38:06;;;;;;;7.57;2.13;;;12.20;99.90;;;;;;4989162;28;20022;-69
2023/11/06 09:40:32;;;;;;;5.25;1.45;;;12.20;99.90;;;;;;4990852;28;20122;-69
2023/11/06 09:42:58;;;;;;;3.97;0.90;;;12.20;99.90;;;;;;4992829;28;20041;-69
2023/11/06 09:45:24;;;;;;;11.05;1.42;;;12.20;99.90;;;;;;4987522;28;20109;-69
2023/11/06 09:47:51;;;;;;;5.00;1.50;;;12.20;99.90;;;;;;4983429;28;20448;-69
2023/11/06 09:50:19;;;;;;;10.15;1.38;;;12.20;99.90;;;;;;4989045;28;20022;-69
2023/11/06 09:52:53;;;;;;;;;;;12.20;99.90;;;;;;4988732;28;20034;-69
2023/11/06 09:55:19;;;;;;;8.98;1.65;;;12.20;99.90;;;;;;4988478;28;19913;-68
2023/11/06 09:57:50;;;;;;;4.95;1.35;;;12.30;99.90;;;;;;4986168;28;20018;-68
2023/11/06 10:00:16;;;;;;;8.82;1.83;;;12.30;99.90;;;;;;4990365;28;20030;-68
2023/11/06 10:02:48;;;;;;;9.38;1.60;;;12.30;99.90;;;;;;4988529;28;20109;-69
2023/11/06 10:05:22;;;;;;;7.63;1.67;;;12.40;99.90;;;;;;4990415;28;20022;-69
2023/11/06 10:07:54;;;;;;;8.20;1.13;;;12.30;99.90;;;;;;4988783;28;20049;-68
2023/11/06 10:10:23;;;;;;;9.65;2.08;;;12.30;99.90;;;;;;4992176;28;20356;-68
2023/11/06 10:13:10;;;;;;;15.30;2.85;;;12.30;99.90;;;;;;4991378;28;20472;-69
2023/11/06 10:15:37;;;;;;;6.57;1.50;;;12.40;99.90;;;;;;4991110;28;20034;-69
2023/11/06 10:18:13;;;;;;;9.20;2.35;;;12.40;99.90;;;;;;4991649;28;20104;-69
2023/11/06 10:20:47;;;;;;;11.82;1.92;;;12.40;99.90;;;;;;4991444;28;20031;-69
2023/11/06 10:23:27;;;;;;;9.32;1.67;;;12.40;99.90;;;;;;4995313;28;20089;-68
2023/11/06 10:26:10;;;;;;;7.18;1.83;;;12.50;99.90;;;;;;4996023;28;20053;-69
2023/11/06 10:28:35;;;;;;;10.60;1.77;;;12.50;99.90;;;;;;4993473;28;20030;-68
2023/11/06 10:31:04;;;;;;;7.18;1.98;;;12.50;99.90;;;;;;4990766;28;20036;-68
2023/11/06 10:33:30;;;;;;;11.70;2.08;;;12.60;99.90;;;;;;4988694;28;20033;-69
2023/11/06 10:35:59;;;;;;;13.27;2.13;;;12.60;99.90;;;;;;4990140;28;20085;-69
2023/11/06 10:38:30;;;;;;;14.80;2.22;;;12.70;99.90;;;;;;5006572;28;20023;-69
2023/11/06 10:41:24;;;;;;;14.13;1.92;;;12.70;99.90;;;;;;4995154;28;20511;-68
2023/11/06 10:43:57;;;;;;;8.88;1.67;;;12.80;99.90;;;;;;4989065;28;20117;-68
2023/11/06 10:46:30;;;;;;;12.07;2.05;;;12.80;99.90;;;;;;4988457;28;20805;-68
2023/11/06 10:49:15;;;;;;;15.68;2.20;;;12.80;99.90;;;;;;5007348;28;20034;-69
2023/11/06 10:51:45;;;;;;;12.70;2.15;;;12.90;99.90;;;;;;4989289;28;20057;-69
2023/11/06 10:54:12;;;;;;;10.38;1.83;;;12.90;99.90;;;;;;4991778;28;20026;-69
2023/11/06 10:56:39;;;;;;;13.77;2.37;;;12.90;99.90;;;;;;4991508;28;20744;-68
2023/11/06 10:59:07;;;;;;;12.20;2.47;;;12.90;99.90;;;;;;4991808;28;20021;-68
2023/11/06 11:01:36;;;;;;;18.05;1.55;;;12.90;99.90;;;;;;4993128;28;20081;-68
2023/11/06 11:04:10;;;;;;;12.65;1.75;;;13.00;99.90;;;;;;4993847;28;20093;-69
2023/11/06 11:06:45;;;;;;;9.18;2.00;;;13.00;99.90;;;;;;4990884;28;20026;-69
2023/11/06 11:09:11;;;;;;;7.93;1.80;;;13.00;99.90;;;;;;4992673;28;20773;-69
2023/11/06 11:11:39;;;;;;;7.28;1.70;;;13.00;99.90;;;;;;4997202;28;20026;-69
2023/11/06 11:14:06;;;;;;;11.33;1.90;;;13.00;99.90;;;;;;4992277;28;20492;-68
2023/11/06 11:16:35;;;;;;;6.88;1.38;;;13.00;99.90;;;;;;4987011;28;20276;-68
2023/11/06 11:19:01;;;;;;;13.95;1.92;;;13.00;99.90;;;;;;4990767;28;20114;-68
2023/11/06 11:21:58;;;;;;;9.43;1.63;;;12.90;99.90;;;;;;4991926;28;20156;-68
2023/11/06 11:24:45;;;;;;;6.47;1.85;;;12.90;99.90;;;;;;5002130;23;20141;-70
2023/11/06 11:27:18;;;;;;;8.43;1.42;;;12.90;99.90;;;;;;5010897;28;20030;-69
2023/11/06 11:29:53;;;;;;;7.93;1.48;;;13.00;99.90;;;;;;5006191;28;20596;-70
2023/11/06 11:32:30;;;;;;;8.93;1.33;;;13.00;99.90;;;;;;5007725;28;20084;-69
2023/11/06 11:35:19;;;;;;;9.27;1.60;;;13.10;99.90;;;;;;5007839;28;20018;-69
2023/11/06 11:37:58;;;;;;;16.00;2.08;;;13.10;99.90;;;;;;5002194;28;20121;-69
2023/11/06 11:40:44;;;;;;;9.82;1.75;;;13.10;99.90;;;;;;5007313;28;20033;-69
2023/11/06 11:43:25;;;;;;;17.25;3.47;;;13.00;99.90;;;;;;5007058;28;20025;-69
2023/11/06 11:45:51;;;;;;;7.22;1.92;;;13.00;99.90;;;;;;5007953;28;20065;-69
2023/11/06 11:48:19;;;;;;;10.35;2.22;;;13.00;99.90;;;;;;5007285;28;20396;-69
2023/11/06 11:50:48;;;;;;;13.77;2.20;;;13.00;99.90;;;;;;5010363;28;20088;-69
2023/11/06 11:53:34;;;;;;;4.57;1.35;;;13.10;99.90;;;;;;5008821;28;20036;-70
2023/11/06 11:55:59;;;;;;;10.10;1.92;;;13.10;99.90;;;;;;5013355;28;20025;-69
2023/11/06 11:58:25;;;;;;;7.00;1.40;;;13.10;99.90;;;;;;5008432;28;20482;-69
2023/11/06 12:00:59;;;;;;;10.27;1.77;;;13.10;99.90;;;;;;5010447;28;20029;-69
2023/11/06 12:03:25;;;;;;;8.85;1.58;;;13.10;99.90;;;;;;5008090;28;20084;-69
2023/11/06 12:05:58;;;;;;;5.50;1.73;;;13.20;99.90;;;;;;5009203;28;20044;-69
2023/11/06 12:08:26;;;;;;;5.57;1.38;;;13.20;99.90;;;;;;5008456;28;20030;-69
2023/11/06 12:10:53;;;;;;;10.38;1.35;;;13.20;99.90;;;;;;5012762;28;20108;-69
2023/11/06 12:13:27;;;;;;;8.60;1.45;;;13.30;99.90;;;;;;5010567;28;20678;-69
2023/11/06 12:15:54;;;;;;;7.97;1.63;;;13.30;99.90;;;;;;5009193;28;20033;-70
2023/11/06 12:18:23;;;;;;;7.00;1.27;;;13.30;99.90;;;;;;5008367;28;20021;-70
2023/11/06 12:20:57;;;;;;;7.75;1.40;;;13.30;99.60;;;;;;5007544;28;20022;-70
2023/11/06 12:23:33;;;;;;;8.50;1.67;;;13.30;99.60;;;;;;5007453;28;20061;-70
2023/11/06 12:26:10;;;;;;;16.58;2.20;;;13.40;99.10;;;;;;5011849;28;20033;-69
2023/11/06 12:28:45;;;;;;;6.68;1.33;;;13.30;99.20;;;;;;5006963;28;20407;-70
2023/11/06 12:31:11;;;;;;;3.95;1.00;;;13.40;99.20;;;;;;5007992;28;20516;-70
2023/11/06 12:33:37;;;;;;;5.88;1.08;;;13.40;98.70;;;;;;4999796;28;20064;-69
2023/11/06 12:36:03;;;;;;;10.65;1.63;;;13.50;98.80;;;;;;5009766;28;20034;-70
2023/11/06 12:38:46;;;;;;;11.30;1.42;;;13.50;99.00;;;;;;5010000;28;20488;-70
2023/11/06 12:41:29;;;;;;;9.75;1.38;;;13.60;99.00;;;;;;5008027;28;20026;-70
2023/11/06 12:43:55;;;;;;;8.00;1.48;;;13.70;99.00;;;;;;5007620;28;20021;-70
2023/11/06 12:46:23;;;;;;;11.23;1.58;;;13.80;99.10;;;;;;5027637;28;20018;-70
2023/11/06 12:48:52;;;;;;;9.45;1.42;;;13.80;99.30;;;;;;5006291;28;20032;-70
2023/11/06 12:51:18;;;;;;;7.45;1.33;;;13.90;98.60;;;;;;5012107;28;20029;-69
2023/11/06 12:53:47;;;;;;;14.00;1.52;;;13.90;98.40;;;;;;5002609;28;20778;-70
2023/11/06 12:56:18;;;;;;;6.70;1.30;;;13.90;98.10;;;;;;5009425;28;20519;-70
2023/11/06 12:58:43;;;;;;;7.15;1.33;;;13.80;98.10;;;;;;5010587;28;20109;-70
2023/11/06 13:01:20;;;;;;;4.65;1.02;;;13.80;98.50;;;;;;5009317;28;20104;-70
2023/11/06 13:03:49;;;;;;;8.85;1.17;;;13.70;98.00;;;;;;5003780;28;20049;-70
2023/11/06 13:06:17;;;;;;;8.55;1.65;;;13.70;98.30;;;;;;5006432;28;20092;-70